Time;durP1;ratioP1;P1;durP2;ratioP2;P2;SDS_P1;SDS_P2;PMS_P1;PMS_P2;Temp;Humidity;BMP_temperature;BMP_pressure;BME280_temperature;BME280_humidity;BME280_pressure;Samples;Min_cycle;Max_cycle;Signal;HPM_P1;HPM_P2
2022/06/09 00:01:07;;;;;;;27.47;7.57;;;17.70;85.60;;;;;;5007403;28;20245;-88
2022/06/09 00:03:40;;;;;;;25.40;7.10;;;17.70;85.40;;;;;;5000870;28;20255;-91
2022/06/09 00:06:09;;;;;;;19.67;5.90;;;17.60;85.30;;;;;;5007900;28;20214;-91
2022/06/09 00:08:40;;;;;;;17.47;5.20;;;17.60;85.20;;;;;;5008731;28;20218;-89
2022/06/09 00:11:12;;;;;;;16.73;4.90;;;17.60;85.30;;;;;;5008541;28;20232;-91
2022/06/09 00:13:40;;;;;;;22.70;4.67;;;17.60;85.50;;;;;;5009032;28;20220;-90
2022/06/09 00:16:11;;;;;;;26.00;7.90;;;17.60;85.30;;;;;;5004442;28;20205;-90
2022/06/09 00:18:39;;;;;;;20.30;6.00;;;17.60;85.30;;;;;;4995402;28;21073;-91
2022/06/09 00:21:07;;;;;;;18.00;4.93;;;17.60;85.30;;;;;;5007603;28;20196;-92
2022/06/09 00:23:36;;;;;;;17.77;5.67;;;17.60;85.90;;;;;;5010026;28;20213;-90
2022/06/09 00:26:03;;;;;;;21.00;5.43;;;17.60;86.20;;;;;;5010125;28;21182;-93
2022/06/09 00:28:32;;;;;;;35.83;8.90;;;17.60;85.50;;;;;;5007184;28;20277;-88
2022/06/09 00:30:59;;;;;;;26.33;6.73;;;17.60;86.20;;;;;;5002912;28;20268;-90
2022/06/09 00:33:27;;;;;;;25.07;8.07;;;17.60;85.90;;;;;;5006060;28;20217;-90
2022/06/09 00:35:55;;;;;;;15.57;4.27;;;17.60;86.00;;;;;;5007852;28;20682;-90
2022/06/09 00:38:23;;;;;;;22.20;5.47;;;17.50;86.20;;;;;;5009211;28;20303;-88
2022/06/09 00:40:52;;;;;;;19.43;5.33;;;17.50;86.30;;;;;;5009191;28;20220;-90
2022/06/09 00:43:19;;;;;;;17.97;4.90;;;17.50;86.40;;;;;;5007769;28;20306;-90
2022/06/09 00:45:53;;;;;;;15.60;5.07;;;17.50;86.20;;;;;;5008811;28;20285;-90
2022/06/09 00:48:34;;;;;;;18.93;5.63;;;17.50;86.90;;;;;;5008588;28;20751;-90
2022/06/09 00:51:12;;;;;;;17.83;5.97;;;17.50;87.20;;;;;;4999949;28;20206;-90
2022/06/09 00:53:42;;;;;;;15.13;4.50;;;17.50;87.00;;;;;;5009605;28;20205;-91
2022/06/09 00:56:14;;;;;;;13.23;4.80;;;17.50;86.70;;;;;;5007656;28;20729;-91
2022/06/09 00:58:47;;;;;;;18.53;4.77;;;17.50;86.80;;;;;;5008995;28;20760;-91
2022/06/09 01:01:18;;;;;;;22.57;7.23;;;17.50;87.00;;;;;;5006900;28;20296;-91
2022/06/09 01:03:52;;;;;;;14.47;4.43;;;17.50;87.00;;;;;;5012682;28;20208;-91
2022/06/09 01:06:23;;;;;;;26.70;7.43;;;17.50;87.10;;;;;;5017178;28;20234;-90
2022/06/09 01:08:57;;;;;;;25.73;7.43;;;17.50;86.90;;;;;;5017189;28;20279;-90
2022/06/09 01:11:24;;;;;;;17.03;4.63;;;17.40;86.90;;;;;;5011885;28;20265;-90
2022/06/09 01:13:54;;;;;;;13.13;4.37;;;17.40;86.70;;;;;;5010167;28;20233;-90
2022/06/09 01:16:27;;;;;;;17.43;4.67;;;17.40;87.00;;;;;;5010368;28;20201;-93
2022/06/09 01:19:12;;;;;;;18.13;4.87;;;17.40;87.20;;;;;;5004521;28;20704;-90
2022/06/09 01:22:14;;;;;;;15.90;5.40;;;17.40;87.40;;;;;;5008901;28;20267;-90
2022/06/09 01:25:06;;;;;;;19.93;5.80;;;17.40;87.80;;;;;;5002227;28;20201;-90
2022/06/09 01:27:50;;;;;;;16.77;5.77;;;17.30;87.40;;;;;;5006151;28;20257;-91
2022/06/09 01:30:21;;;;;;;17.90;4.50;;;17.30;87.20;;;;;;5002489;28;20299;-91
2022/06/09 01:32:59;;;;;;;17.70;5.67;;;17.30;87.10;;;;;;5020052;28;20247;-91
2022/06/09 01:35:36;;;;;;;15.83;5.87;;;17.30;87.60;;;;;;5016452;28;20292;-91
2022/06/09 01:38:04;;;;;;;14.50;4.37;;;17.30;87.30;;;;;;5011883;28;20215;-90
2022/06/09 01:40:32;;;;;;;17.67;5.50;;;17.20;86.90;;;;;;5010354;28;20202;-92
2022/06/09 01:43:00;;;;;;;24.97;6.47;;;17.20;87.00;;;;;;5006814;28;20267;-91
2022/06/09 01:45:44;;;;;;;13.53;4.97;;;17.20;87.80;;;;;;5008477;28;20206;-92
2022/06/09 01:48:15;;;;;;;19.97;5.30;;;17.20;87.30;;;;;;5009629;28;20201;-91
2022/06/09 01:50:48;;;;;;;18.27;5.83;;;17.20;87.40;;;;;;5005077;28;20201;-92
2022/06/09 01:53:18;;;;;;;17.67;4.73;;;17.20;87.50;;;;;;5009700;28;20296;-95
2022/06/09 01:55:51;;;;;;;14.13;4.40;;;17.20;87.30;;;;;;5009092;28;20288;-92
2022/06/09 01:58:22;;;;;;;21.77;5.73;;;17.20;87.50;;;;;;5010176;28;20288;-91
2022/06/09 02:00:54;;;;;;;14.40;4.57;;;17.10;87.40;;;;;;5008570;28;20267;-91
2022/06/09 02:03:28;;;;;;;12.17;4.13;;;17.10;87.50;;;;;;5004793;28;20306;-90
2022/06/09 02:05:59;;;;;;;14.07;4.67;;;17.10;87.40;;;;;;5010825;28;20656;-91
2022/06/09 02:08:29;;;;;;;17.40;4.70;;;17.10;87.40;;;;;;5007711;28;20237;-90
2022/06/09 02:11:00;;;;;;;18.37;4.73;;;17.10;87.40;;;;;;5008147;28;20207;-92
2022/06/09 02:13:30;;;;;;;15.73;4.93;;;17.10;87.60;;;;;;5009491;28;20213;-90
2022/06/09 02:16:05;;;;;;;14.43;3.90;;;17.00;87.50;;;;;;5010605;28;20205;-92
2022/06/09 02:18:40;;;;;;;14.77;4.33;;;17.00;87.60;;;;;;5004443;28;20213;-92
2022/06/09 02:21:13;;;;;;;14.47;4.07;;;17.00;88.00;;;;;;5002862;28;20202;-93
2022/06/09 02:23:48;;;;;;;20.13;5.80;;;17.00;87.80;;;;;;5010029;28;20308;-93
2022/06/09 02:26:16;;;;;;;15.23;5.40;;;16.90;88.10;;;;;;5005895;28;20331;-90
2022/06/09 02:28:43;;;;;;;12.53;4.47;;;16.90;87.50;;;;;;5009988;28;20264;-89
2022/06/09 02:31:15;;;;;;;20.70;6.17;;;16.90;87.40;;;;;;5008616;28;20238;-92
2022/06/09 02:33:43;;;;;;;14.97;4.67;;;16.90;87.70;;;;;;5010863;28;20270;-96
2022/06/09 02:36:11;;;;;;;26.63;5.90;;;16.90;87.70;;;;;;5015420;28;20235;-90
2022/06/09 02:38:39;;;;;;;17.93;4.20;;;16.90;87.60;;;;;;5008592;28;20229;-91
2022/06/09 02:41:07;;;;;;;13.87;4.13;;;16.80;87.40;;;;;;5010404;28;20206;-89
2022/06/09 02:43:36;;;;;;;9.70;3.83;;;16.90;87.80;;;;;;5008243;28;20234;-90
2022/06/09 02:46:04;;;;;;;15.90;5.40;;;16.80;87.80;;;;;;4995382;28;20271;-91
2022/06/09 02:48:32;;;;;;;12.10;3.57;;;16.80;87.70;;;;;;5008789;28;20300;-90
2022/06/09 02:53:53;;;;;;;18.00;6.07;;;16.80;87.70;;;;;;5103369;27;20784;-88
2022/06/09 02:56:21;;;;;;;13.93;4.23;;;16.80;88.00;;;;;;5085296;28;20209;-90
2022/06/09 02:58:48;;;;;;;23.27;5.37;;;16.70;87.60;;;;;;5085659;28;20682;-90
2022/06/09 03:01:16;;;;;;;16.17;5.90;;;16.70;87.60;;;;;;5085222;28;20208;-90
2022/06/09 03:03:44;;;;;;;13.90;4.50;;;16.70;88.50;;;;;;5083067;28;20278;-90
2022/06/09 03:06:11;;;;;;;15.97;5.07;;;16.70;87.60;;;;;;5084379;28;20303;-90
2022/06/09 03:08:39;;;;;;;25.33;5.43;;;16.70;87.50;;;;;;5073398;28;20244;-88
2022/06/09 03:11:10;;;;;;;28.57;7.53;;;16.70;87.70;;;;;;5074751;28;20260;-91
2022/06/09 03:13:40;;;;;;;16.97;5.47;;;16.70;87.70;;;;;;5065352;28;20234;-89
2022/06/09 03:16:09;;;;;;;22.93;7.33;;;16.70;87.60;;;;;;5076812;28;20701;-89
2022/06/09 03:18:36;;;;;;;17.77;4.40;;;16.70;87.60;;;;;;5085102;28;20211;-89
2022/06/09 03:21:04;;;;;;;16.03;4.73;;;16.70;87.50;;;;;;5078835;28;20201;-89
2022/06/09 03:23:32;;;;;;;19.83;5.63;;;16.70;87.40;;;;;;5072382;28;20205;-88
2022/06/09 03:26:02;;;;;;;20.57;5.00;;;16.70;87.40;;;;;;5075185;28;20235;-89
2022/06/09 03:28:30;;;;;;;18.17;5.70;;;16.70;87.80;;;;;;5091179;28;20800;-89
2022/06/09 03:31:02;;;;;;;15.33;5.00;;;16.60;87.60;;;;;;5094438;28;20216;-88
2022/06/09 03:33:29;;;;;;;17.50;5.70;;;16.60;87.60;;;;;;5083257;28;20223;-89
2022/06/09 03:35:56;;;;;;;19.07;4.67;;;16.60;87.50;;;;;;5084830;28;20703;-90
2022/06/09 03:38:23;;;;;;;21.87;6.03;;;16.60;87.50;;;;;;5082474;28;20218;-89
2022/06/09 03:40:50;;;;;;;21.37;5.43;;;16.60;87.60;;;;;;5084157;28;20217;-89
2022/06/09 03:43:17;;;;;;;16.37;4.77;;;16.60;87.60;;;;;;5082251;28;20203;-90
2022/06/09 03:45:47;;;;;;;16.20;4.60;;;16.60;87.70;;;;;;5084904;28;20205;-89
2022/06/09 03:48:14;;;;;;;14.93;4.80;;;16.60;88.00;;;;;;5083868;28;20274;-89
2022/06/09 03:50:42;;;;;;;14.77;5.10;;;16.60;87.80;;;;;;5082581;28;20663;-88
2022/06/09 03:53:09;;;;;;;13.03;4.33;;;16.60;87.90;;;;;;5084371;28;20232;-89
2022/06/09 03:55:37;;;;;;;17.87;5.00;;;16.60;87.80;;;;;;5080030;28;20264;-89
2022/06/09 03:58:05;;;;;;;14.67;4.97;;;16.60;87.80;;;;;;5071650;28;20698;-91
2022/06/09 04:00:33;;;;;;;17.87;5.83;;;16.60;88.00;;;;;;5082516;28;20491;-90
2022/06/09 04:03:02;;;;;;;18.37;5.63;;;16.50;87.90;;;;;;5081668;28;20555;-88
2022/06/09 04:05:32;;;;;;;22.63;6.13;;;16.50;87.90;;;;;;5065294;28;20214;-89
2022/06/09 04:08:00;;;;;;;14.27;4.00;;;16.50;87.70;;;;;;5069947;28;20979;-88
2022/06/09 04:10:30;;;;;;;21.27;6.13;;;16.40;87.70;;;;;;5068473;28;20701;-90
2022/06/09 04:12:58;;;;;;;11.50;4.00;;;16.50;88.10;;;;;;5066787;28;20695;-89
2022/06/09 04:15:26;;;;;;;18.20;6.10;;;16.50;88.10;;;;;;5067865;28;20259;-88
2022/06/09 04:17:53;;;;;;;19.83;5.73;;;16.50;88.40;;;;;;5069955;28;20250;-89
2022/06/09 04:20:26;;;;;;;20.47;6.17;;;16.50;88.30;;;;;;5064136;28;20204;-92
2022/06/09 04:22:53;;;;;;;18.77;5.47;;;16.40;88.70;;;;;;5056680;28;20209;-90
2022/06/09 04:25:21;;;;;;;22.57;6.77;;;16.40;88.30;;;;;;5068144;28;20210;-88
2022/06/09 04:27:49;;;;;;;13.50;4.40;;;16.40;88.50;;;;;;5069652;28;20214;-89
2022/06/09 04:30:17;;;;;;;12.77;4.10;;;16.40;88.60;;;;;;5065587;28;20206;-89
2022/06/09 04:32:45;;;;;;;17.87;4.83;;;16.40;88.70;;;;;;5069390;28;20679;-88
2022/06/09 04:35:13;;;;;;;20.43;5.40;;;16.40;88.90;;;;;;5069429;28;20208;-88
2022/06/09 04:38:00;;;;;;;18.30;5.47;;;16.30;88.80;;;;;;5067123;28;20606;-89
2022/06/09 04:40:28;;;;;;;20.47;5.83;;;16.40;89.30;;;;;;5073650;28;20230;-88
2022/06/09 04:42:56;;;;;;;18.73;4.77;;;16.30;89.10;;;;;;5079973;28;20234;-89
2022/06/09 04:45:24;;;;;;;18.80;4.87;;;16.40;90.10;;;;;;5099083;28;20198;-90
2022/06/09 04:47:51;;;;;;;15.80;5.20;;;16.30;89.40;;;;;;5075924;28;20282;-89
2022/06/09 04:50:19;;;;;;;24.93;6.17;;;16.30;89.50;;;;;;5068626;28;20213;-90
2022/06/09 04:52:50;;;;;;;11.60;3.83;;;16.30;90.00;;;;;;5068144;28;20316;-90
2022/06/09 04:55:17;;;;;;;19.93;6.53;;;16.30;90.60;;;;;;5070910;28;20720;-89
2022/06/09 04:57:44;;;;;;;12.17;3.67;;;16.30;90.10;;;;;;5069333;28;20756;-90
2022/06/09 05:00:14;;;;;;;20.70;5.90;;;16.40;90.40;;;;;;5070775;28;20188;-89
2022/06/09 05:02:42;;;;;;;20.13;5.47;;;16.40;90.80;;;;;;5067972;28;20203;-89
2022/06/09 05:05:19;;;;;;;11.33;3.33;;;16.40;90.80;;;;;;5065442;28;20231;-89
2022/06/09 05:07:47;;;;;;;13.20;4.10;;;16.40;91.30;;;;;;5070458;28;20258;-89
2022/06/09 05:10:16;;;;;;;16.50;5.70;;;16.50;91.20;;;;;;5065155;28;20203;-90
2022/06/09 05:12:44;;;;;;;13.47;3.83;;;16.50;91.60;;;;;;5067560;28;20233;-88
2022/06/09 05:15:14;;;;;;;17.40;5.33;;;16.50;91.70;;;;;;5068325;28;20215;-89
2022/06/09 05:17:43;;;;;;;14.90;5.00;;;16.60;92.10;;;;;;5070319;28;20192;-89
2022/06/09 05:20:12;;;;;;;17.50;5.13;;;16.60;92.10;;;;;;5068811;28;20277;-88
2022/06/09 05:22:39;;;;;;;21.37;6.23;;;16.70;92.20;;;;;;5067550;28;20200;-91
2022/06/09 05:25:08;;;;;;;15.83;4.80;;;16.70;92.10;;;;;;5081276;28;20207;-90
2022/06/09 05:27:39;;;;;;;13.87;4.63;;;16.80;92.20;;;;;;5077870;28;20207;-90
2022/06/09 05:30:13;;;;;;;12.43;4.63;;;16.90;92.30;;;;;;5074984;28;20228;-91
2022/06/09 05:32:41;;;;;;;19.23;5.87;;;16.90;92.30;;;;;;5069979;28;20651;-90
2022/06/09 05:35:10;;;;;;;12.67;3.43;;;17.00;92.30;;;;;;5073496;28;20691;-95
2022/06/09 05:46:03;;;;;;;15.63;5.23;;;17.20;92.40;;;;;;5067133;28;20366;-91
2022/06/09 05:48:32;;;;;;;11.53;3.90;;;17.30;92.50;;;;;;5068081;28;20258;-90
2022/06/09 05:51:00;;;;;;;12.73;3.73;;;17.40;92.50;;;;;;5069076;28;20315;-92
2022/06/09 05:53:27;;;;;;;14.73;3.97;;;17.40;92.30;;;;;;5070619;28;20238;-92
2022/06/09 05:55:54;;;;;;;13.77;3.93;;;17.50;92.20;;;;;;5072065;28;20298;-94
2022/06/09 05:58:23;;;;;;;14.50;4.07;;;17.60;92.20;;;;;;5066650;28;20206;-92
2022/06/09 06:00:56;;;;;;;12.67;3.50;;;17.60;92.50;;;;;;5068139;28;20210;-92
2022/06/09 06:03:25;;;;;;;6.93;2.80;;;17.70;92.60;;;;;;5071431;28;20277;-94
2022/06/09 06:08:39;;;;;;;14.37;4.20;;;17.80;92.20;;;;;;5072094;28;20206;-94
2022/06/09 06:11:07;;;;;;;10.53;3.47;;;17.90;91.90;;;;;;5070913;28;20283;-94
2022/06/09 06:13:46;;;;;;;11.03;3.70;;;17.90;92.10;;;;;;5054958;28;20223;-96
2022/06/09 06:16:19;;;;;;;9.37;3.60;;;17.90;92.20;;;;;;5072496;28;20957;-96
2022/06/09 06:18:53;;;;;;;12.13;3.73;;;18.00;91.90;;;;;;5072112;28;20203;-96
2022/06/09 06:21:20;;;;;;;9.13;3.07;;;18.00;91.80;;;;;;5071569;28;20215;-95
2022/06/09 06:23:48;;;;;;;10.93;3.47;;;18.00;91.70;;;;;;5070280;28;20215;-94
2022/06/09 06:26:16;;;;;;;6.33;2.60;;;18.00;91.60;;;;;;5070833;28;20210;-96
2022/06/09 06:28:46;;;;;;;9.70;2.97;;;18.10;91.70;;;;;;5072506;28;20217;-95
2022/06/09 06:31:14;;;;;;;12.03;3.67;;;18.10;91.70;;;;;;5071800;28;20268;-96
2022/06/09 06:33:47;;;;;;;9.57;2.80;;;18.10;92.00;;;;;;5071688;28;20236;-96
2022/06/09 06:36:15;;;;;;;8.57;2.57;;;18.10;91.90;;;;;;5071611;28;20277;-96
2022/06/09 06:38:43;;;;;;;9.10;3.27;;;18.10;92.00;;;;;;5070410;28;20204;-96
2022/06/09 06:41:13;;;;;;;7.17;2.40;;;18.20;92.00;;;;;;5062963;28;20206;-96
2022/06/09 06:43:42;;;;;;;13.47;3.83;;;18.20;92.00;;;;;;5072597;28;20206;-96
2022/06/09 06:46:11;;;;;;;11.60;3.97;;;18.20;92.00;;;;;;5073204;28;20640;-96
2022/06/09 06:48:38;;;;;;;14.57;4.30;;;18.20;91.90;;;;;;5068760;28;20207;-96
2022/06/09 06:51:11;;;;;;;9.47;3.67;;;18.30;91.90;;;;;;5069645;28;20555;-95
2022/06/09 06:53:39;;;;;;;9.40;3.20;;;18.30;92.30;;;;;;5071408;28;20282;-95
2022/06/09 06:56:07;;;;;;;6.77;2.40;;;18.30;92.10;;;;;;5056887;28;20265;-96
2022/06/09 06:58:35;;;;;;;17.27;4.60;;;18.30;92.20;;;;;;5052396;28;20208;-96
2022/06/09 07:01:05;;;;;;;10.10;3.23;;;18.30;92.20;;;;;;5068873;28;20202;-95
2022/06/09 07:03:33;;;;;;;9.33;3.07;;;18.40;92.40;;;;;;5073500;28;20203;-96
2022/06/09 07:06:01;;;;;;;15.10;3.90;;;18.40;92.40;;;;;;5072103;28;20226;-94
2022/06/09 07:08:29;;;;;;;10.90;3.57;;;18.40;92.40;;;;;;5070069;28;20279;-95
2022/06/09 07:10:57;;;;;;;13.87;4.40;;;18.50;92.60;;;;;;5070303;28;20301;-95
2022/06/09 07:13:25;;;;;;;20.17;6.17;;;18.50;92.70;;;;;;5063017;28;20230;-96
2022/06/09 07:15:53;;;;;;;17.33;5.00;;;18.50;92.90;;;;;;5074105;28;20207;-94
2022/06/09 07:18:20;;;;;;;18.87;5.77;;;18.60;93.00;;;;;;5068570;28;20217;-94
2022/06/09 07:20:49;;;;;;;16.67;5.13;;;18.60;93.10;;;;;;5070198;28;20250;-93
2022/06/09 07:23:18;;;;;;;14.67;4.80;;;18.60;93.70;;;;;;5071200;28;20587;-94
2022/06/09 07:25:45;;;;;;;15.47;5.03;;;18.70;93.50;;;;;;5071122;28;20252;-93
2022/06/09 07:28:15;;;;;;;14.47;4.37;;;18.70;93.20;;;;;;5070830;28;20249;-94
2022/06/09 07:30:44;;;;;;;10.63;3.80;;;18.80;93.20;;;;;;5069234;28;20210;-92
2022/06/09 07:33:12;;;;;;;10.70;3.77;;;18.90;92.80;;;;;;5069685;28;20230;-91
2022/06/09 07:35:42;;;;;;;17.07;4.97;;;18.90;92.60;;;;;;5068922;28;20210;-91
2022/06/09 07:38:14;;;;;;;20.83;3.90;;;18.90;92.00;;;;;;5070003;28;20237;-93
2022/06/09 07:40:43;;;;;;;11.87;3.70;;;19.00;91.70;;;;;;5072800;28;20206;-92
2022/06/09 07:43:11;;;;;;;11.20;4.03;;;19.10;91.50;;;;;;5069657;28;21012;-90
2022/06/09 07:45:40;;;;;;;20.03;5.47;;;19.10;91.60;;;;;;5067654;28;20922;-91
2022/06/09 07:48:09;;;;;;;16.33;4.57;;;19.10;91.50;;;;;;5056495;28;20208;-92
2022/06/09 07:50:36;;;;;;;12.97;3.67;;;19.20;92.20;;;;;;5052222;28;20231;-93
2022/06/09 07:53:04;;;;;;;16.13;4.93;;;19.30;92.10;;;;;;5066471;28;20207;-92
2022/06/09 07:55:33;;;;;;;15.40;4.53;;;19.30;91.40;;;;;;5071403;28;20209;-93
2022/06/09 07:58:01;;;;;;;16.03;4.43;;;19.30;91.10;;;;;;5071167;28;20207;-91
2022/06/09 08:00:29;;;;;;;17.03;4.60;;;19.40;91.30;;;;;;5071487;28;20211;-92
2022/06/09 08:02:57;;;;;;;15.03;4.20;;;19.40;91.10;;;;;;5070984;28;20257;-91
2022/06/09 08:05:26;;;;;;;13.83;4.90;;;19.50;90.80;;;;;;5071712;28;20215;-91
2022/06/09 08:07:53;;;;;;;11.53;3.63;;;19.60;91.10;;;;;;5072694;28;20211;-94
2022/06/09 08:10:24;;;;;;;14.93;5.47;;;19.60;90.90;;;;;;5072174;28;20720;-91
2022/06/09 08:12:55;;;;;;;14.83;4.43;;;19.70;90.20;;;;;;5070805;28;20202;-91
2022/06/09 08:15:24;;;;;;;10.27;4.10;;;19.70;89.70;;;;;;5072378;28;20322;-94
2022/06/09 08:17:52;;;;;;;11.50;4.40;;;19.80;89.10;;;;;;5083015;28;20202;-92
2022/06/09 08:20:23;;;;;;;16.70;5.20;;;19.80;87.20;;;;;;5090447;28;20191;-93
2022/06/09 08:22:53;;;;;;;9.70;3.10;;;19.90;86.40;;;;;;5078195;28;20204;-91
2022/06/09 08:25:22;;;;;;;15.77;5.00;;;19.90;86.80;;;;;;5074021;28;20637;-92
2022/06/09 08:27:49;;;;;;;10.03;3.60;;;20.00;86.40;;;;;;5073377;28;20203;-90
2022/06/09 08:30:19;;;;;;;13.83;4.20;;;20.00;86.60;;;;;;5072590;28;20248;-91
2022/06/09 08:32:47;;;;;;;17.37;5.10;;;20.10;86.40;;;;;;5071381;28;20227;-92
2022/06/09 08:35:18;;;;;;;15.93;5.70;;;20.20;87.10;;;;;;5071583;28;20230;-90
2022/06/09 08:37:48;;;;;;;20.17;5.00;;;20.20;88.10;;;;;;5069884;28;20249;-90
2022/06/09 08:40:20;;;;;;;16.80;5.90;;;20.30;87.50;;;;;;5069370;28;20207;-91
2022/06/09 08:43:02;;;;;;;15.30;4.50;;;20.40;85.70;;;;;;5069097;28;20215;-89
2022/06/09 08:45:36;;;;;;;16.67;5.83;;;20.50;85.30;;;;;;5071344;28;20225;-93
2022/06/09 08:48:06;;;;;;;21.13;6.60;;;20.70;85.00;;;;;;5062363;28;20243;-89
2022/06/09 08:50:36;;;;;;;23.60;7.40;;;20.90;84.90;;;;;;5060761;28;20758;-90
2022/06/09 08:53:10;;;;;;;13.10;4.77;;;21.00;84.50;;;;;;5060129;28;20261;-91
2022/06/09 08:55:40;;;;;;;17.77;6.37;;;21.20;83.40;;;;;;5052644;28;20223;-89
2022/06/09 08:58:15;;;;;;;13.53;4.33;;;21.40;83.10;;;;;;5069881;28;20226;-91
2022/06/09 09:00:48;;;;;;;14.27;5.37;;;21.60;81.60;;;;;;5070126;28;20648;-91
2022/06/09 09:03:23;;;;;;;18.83;6.17;;;21.70;81.00;;;;;;5052798;28;20196;-92
2022/06/09 09:05:56;;;;;;;24.10;7.37;;;21.80;77.30;;;;;;5068270;28;20234;-91
2022/06/09 09:08:23;;;;;;;22.20;5.67;;;22.00;77.70;;;;;;5070692;28;20294;-92
2022/06/09 09:11:12;;;;;;;17.00;6.63;;;22.00;77.60;;;;;;5069838;28;20809;-91
2022/06/09 09:13:47;;;;;;;16.43;6.20;;;22.20;74.50;;;;;;5068354;28;20207;-91
2022/06/09 09:16:25;;;;;;;14.57;4.60;;;22.20;75.40;;;;;;5068510;28;20198;-90
2022/06/09 09:18:55;;;;;;;14.20;4.60;;;22.30;75.00;;;;;;5067815;28;20285;-91
2022/06/09 09:21:42;;;;;;;19.60;6.63;;;22.40;75.90;;;;;;5066795;28;20203;-91
2022/06/09 09:24:28;;;;;;;13.73;4.23;;;22.50;75.60;;;;;;5069252;28;20211;-90
2022/06/09 09:27:05;;;;;;;11.00;3.40;;;22.50;74.50;;;;;;5069758;28;20219;-91
2022/06/09 09:29:39;;;;;;;14.60;5.10;;;22.60;74.50;;;;;;5064909;28;20208;-90
2022/06/09 09:32:14;;;;;;;13.83;4.53;;;22.80;74.50;;;;;;5066251;28;20210;-91
2022/06/09 09:34:45;;;;;;;13.43;4.30;;;22.80;73.40;;;;;;5065642;28;20237;-89
2022/06/09 09:37:24;;;;;;;15.70;4.93;;;23.00;73.70;;;;;;5068326;28;20264;-90
2022/06/09 09:40:00;;;;;;;12.30;3.90;;;23.10;72.90;;;;;;5064307;28;20289;-88
2022/06/09 09:42:30;;;;;;;10.33;4.07;;;23.20;73.10;;;;;;5066808;28;20682;-89
2022/06/09 09:45:13;;;;;;;15.83;4.70;;;23.30;73.80;;;;;;5068310;28;20214;-90
2022/06/09 09:47:49;;;;;;;17.13;4.70;;;23.40;72.80;;;;;;5057905;28;20218;-94
2022/06/09 09:50:32;;;;;;;15.33;5.87;;;23.50;72.50;;;;;;5057893;28;20195;-90
2022/06/09 09:53:04;;;;;;;13.27;4.87;;;23.60;71.90;;;;;;5064237;28;20215;-90
2022/06/09 09:55:35;;;;;;;14.63;5.03;;;23.70;73.50;;;;;;5064674;28;20234;-90
2022/06/09 09:58:18;;;;;;;11.30;3.87;;;23.90;72.50;;;;;;5066265;28;20208;-94
2022/06/09 10:00:46;;;;;;;11.50;3.80;;;24.00;69.70;;;;;;5069331;28;20348;-91
2022/06/09 10:08:55;;;;;;;14.77;5.07;;;24.40;69.70;;;;;;5066944;28;20327;-93
2022/06/09 10:14:43;;;;;;;13.50;4.43;;;24.60;68.40;;;;;;5067947;28;20260;-91
2022/06/09 10:17:41;;;;;;;14.33;3.90;;;24.70;67.50;;;;;;5067296;28;20326;-91
2022/06/09 10:20:21;;;;;;;11.53;4.33;;;24.80;67.20;;;;;;5066564;28;20238;-93
2022/06/09 10:23:19;;;;;;;13.07;4.63;;;24.90;67.30;;;;;;5059363;28;20207;-91
2022/06/09 10:25:53;;;;;;;13.23;4.93;;;25.00;65.40;;;;;;5060880;28;20204;-92
2022/06/09 10:28:34;;;;;;;15.70;5.27;;;25.10;66.40;;;;;;5061748;28;20281;-96
2022/06/09 10:31:11;;;;;;;10.87;3.97;;;25.10;66.30;;;;;;5064334;28;20298;-92
2022/06/09 10:33:46;;;;;;;11.43;3.57;;;25.20;66.30;;;;;;5068296;28;20614;-93
2022/06/09 10:36:21;;;;;;;13.40;4.27;;;25.20;65.30;;;;;;5065915;28;20293;-95
2022/06/09 10:38:53;;;;;;;11.63;3.93;;;25.20;65.00;;;;;;5067837;28;20215;-92
2022/06/09 10:41:34;;;;;;;18.17;6.37;;;25.30;66.00;;;;;;5068152;28;20203;-91
2022/06/09 10:44:15;;;;;;;8.60;3.30;;;25.30;64.70;;;;;;5061881;28;20211;-94
2022/06/09 10:55:35;;;;;;;14.43;4.80;;;25.60;61.80;;;;;;5069630;28;20238;-93
2022/06/09 10:58:11;;;;;;;16.70;4.37;;;25.60;62.10;;;;;;5049967;28;20200;-94
2022/06/09 11:00:41;;;;;;;10.00;3.43;;;25.70;64.20;;;;;;5064012;28;20294;-94
2022/06/09 11:03:13;;;;;;;13.07;3.90;;;25.80;62.10;;;;;;5068517;28;20211;-95
2022/06/09 11:06:04;;;;;;;12.83;4.50;;;25.90;61.50;;;;;;5069272;28;20263;-95
2022/06/09 11:08:55;;;;;;;11.73;4.33;;;26.00;60.30;;;;;;5066846;28;20208;-95
2022/06/09 11:11:31;;;;;;;15.30;4.97;;;26.00;59.60;;;;;;5068906;28;20724;-94
2022/06/09 11:14:10;;;;;;;9.53;3.57;;;26.10;59.90;;;;;;5071337;28;20211;-93
2022/06/09 11:16:49;;;;;;;12.20;3.53;;;26.20;59.50;;;;;;5072478;28;20230;-92
2022/06/09 11:19:48;;;;;;;12.17;4.17;;;26.30;58.20;;;;;;5072124;28;20195;-91
2022/06/09 11:22:30;;;;;;;12.93;4.17;;;26.30;57.90;;;;;;5057885;28;20214;-92
2022/06/09 11:25:10;;;;;;;13.40;4.87;;;26.30;57.30;;;;;;5069082;28;20907;-92
2022/06/09 11:27:47;;;;;;;11.60;3.67;;;26.20;57.40;;;;;;5072569;28;20264;-93
2022/06/09 11:30:24;;;;;;;13.63;5.67;;;26.30;57.70;;;;;;5070493;28;20203;-93
2022/06/09 11:33:08;;;;;;;14.33;4.93;;;26.30;57.70;;;;;;5070882;28;20565;-94
2022/06/09 11:35:44;;;;;;;10.77;3.63;;;26.30;56.60;;;;;;5070902;28;20709;-93
2022/06/09 11:38:50;;;;;;;8.27;3.13;;;26.30;56.10;;;;;;5070614;28;20238;-93
2022/06/09 11:41:31;;;;;;;9.53;3.57;;;26.30;54.90;;;;;;5071930;28;20614;-93
2022/06/09 11:44:09;;;;;;;10.87;3.90;;;26.40;55.20;;;;;;5071716;28;20191;-92
2022/06/09 11:47:02;;;;;;;13.63;4.67;;;26.40;56.10;;;;;;5067727;28;20207;-93
2022/06/09 11:49:34;;;;;;;9.40;3.77;;;26.50;55.80;;;;;;5051876;28;20360;-92
2022/06/09 11:52:03;;;;;;;14.93;5.00;;;26.50;56.90;;;;;;5060135;28;20203;-92
2022/06/09 11:54:44;;;;;;;12.33;5.10;;;26.60;55.80;;;;;;5084001;28;20227;-90
2022/06/09 11:57:42;;;;;;;9.47;3.93;;;26.70;54.40;;;;;;5065063;28;20207;-95
2022/06/09 12:00:38;;;;;;;14.70;4.57;;;26.70;52.70;;;;;;5080512;28;20191;-93
2022/06/09 12:03:37;;;;;;;10.40;3.80;;;26.70;54.40;;;;;;5066510;28;20257;-92
2022/06/09 12:06:15;;;;;;;9.90;3.80;;;26.70;53.40;;;;;;5053602;28;20211;-91
2022/06/09 12:08:59;;;;;;;10.47;3.87;;;26.70;54.00;;;;;;5069656;28;20863;-95
2022/06/09 12:11:46;;;;;;;9.83;4.23;;;26.80;51.30;;;;;;5069624;28;21027;-94
2022/06/09 12:14:22;;;;;;;8.60;3.83;;;26.80;53.30;;;;;;5070739;28;20332;-92
2022/06/09 12:17:08;;;;;;;8.57;3.43;;;26.90;52.00;;;;;;5075950;28;20828;-92
2022/06/09 12:19:49;;;;;;;9.30;3.33;;;26.90;50.30;;;;;;5083470;28;20184;-90
2022/06/09 12:22:47;;;;;;;10.43;3.33;;;27.00;52.00;;;;;;5080514;28;20262;-91
2022/06/09 12:25:33;;;;;;;11.03;4.03;;;27.10;52.30;;;;;;5075187;28;20896;-92
2022/06/09 12:28:03;;;;;;;11.27;3.67;;;27.10;50.70;;;;;;5074241;28;20210;-92
2022/06/09 12:30:39;;;;;;;9.73;3.33;;;27.20;52.10;;;;;;5073674;28;20230;-92
2022/06/09 12:33:28;;;;;;;10.77;4.23;;;27.30;50.60;;;;;;5068798;28;20639;-91
2022/06/09 12:35:57;;;;;;;9.53;3.50;;;27.30;50.70;;;;;;5063282;28;20287;-93
2022/06/09 12:38:31;;;;;;;9.10;3.50;;;27.40;51.10;;;;;;5072029;28;20680;-92
2022/06/09 12:41:03;;;;;;;6.40;3.07;;;27.50;49.10;;;;;;5071423;28;20810;-90
2022/06/09 12:43:35;;;;;;;7.73;3.57;;;27.60;49.80;;;;;;5069434;28;20229;-92
2022/06/09 12:46:26;;;;;;;11.33;4.27;;;27.60;49.50;;;;;;5069202;28;20265;-94
2022/06/09 12:48:55;;;;;;;10.33;4.30;;;27.70;48.40;;;;;;5060068;28;20203;-90
2022/06/09 12:51:26;;;;;;;8.47;3.63;;;27.70;49.10;;;;;;5071323;28;20289;-92
2022/06/09 12:54:04;;;;;;;6.73;2.90;;;27.70;47.80;;;;;;5064075;28;20667;-92
2022/06/09 12:56:40;;;;;;;7.43;3.20;;;27.70;47.60;;;;;;5070279;28;20393;-92
2022/06/09 12:59:25;;;;;;;11.90;4.40;;;27.80;48.40;;;;;;5061833;28;20199;-90
2022/06/09 13:02:01;;;;;;;7.83;2.67;;;27.80;47.30;;;;;;5053174;28;20235;-91
2022/06/09 13:04:30;;;;;;;9.80;3.20;;;27.90;46.50;;;;;;5060099;28;20250;-90
2022/06/09 13:07:00;;;;;;;9.90;3.27;;;27.90;46.90;;;;;;5066725;28;20230;-89
2022/06/09 13:09:31;;;;;;;14.77;4.77;;;27.90;46.80;;;;;;5064537;28;20567;-93
2022/06/09 13:14:49;;;;;;;8.90;3.67;;;27.90;47.00;;;;;;5067368;28;20210;-92
2022/06/09 13:17:22;;;;;;;10.23;4.40;;;27.90;47.20;;;;;;5066045;28;20203;-91
2022/06/09 13:19:57;;;;;;;8.50;2.53;;;27.90;46.30;;;;;;5062082;28;20219;-89
2022/06/09 13:22:26;;;;;;;11.87;5.33;;;28.00;46.30;;;;;;5062038;28;20230;-91
2022/06/09 13:24:54;;;;;;;13.23;5.37;;;28.10;46.40;;;;;;5057212;28;20302;-90
2022/06/09 13:27:25;;;;;;;11.33;4.27;;;28.10;47.20;;;;;;5051087;28;20300;-90
2022/06/09 13:30:00;;;;;;;9.97;3.27;;;28.20;45.90;;;;;;5058885;28;20218;-90
2022/06/09 13:32:36;;;;;;;9.33;3.63;;;28.20;46.40;;;;;;5061005;28;20203;-91
2022/06/09 13:35:29;;;;;;;10.40;4.23;;;28.30;46.70;;;;;;5069824;28;20307;-91
2022/06/09 13:38:05;;;;;;;7.13;3.20;;;28.30;46.00;;;;;;5055926;28;20218;-93
2022/06/09 13:40:45;;;;;;;16.23;6.07;;;28.40;46.40;;;;;;5075535;28;20192;-92